Time;durP1;ratioP1;P1;durP2;ratioP2;P2;SDS_P1;SDS_P2;PMS_P1;PMS_P2;Temp;Humidity;BMP_temperature;BMP_pressure;BME280_temperature;BME280_humidity;BME280_pressure;Samples;Min_cycle;Max_cycle;Signal;HPM_P1;HPM_P2
2023/09/04 00:00:02;;;;;;;8.13;6.40;;;13.30;1.00;;;;;;5117780;28;20585;-60
2023/09/04 00:02:31;;;;;;;7.97;6.27;;;13.30;1.00;;;;;;5117214;28;20551;-60
2023/09/04 00:04:58;;;;;;;7.13;6.43;;;13.30;1.00;;;;;;5117428;28;20455;-61
2023/09/04 00:07:25;;;;;;;11.67;6.60;;;13.30;1.00;;;;;;5117799;28;20460;-61
2023/09/04 00:09:52;;;;;;;8.10;6.70;;;13.30;1.00;;;;;;5117096;28;20550;-60
2023/09/04 00:12:20;;;;;;;8.03;6.77;;;13.20;1.00;;;;;;5117580;28;20551;-61
2023/09/04 00:14:47;;;;;;;8.60;6.27;;;13.10;1.00;;;;;;5117291;28;20751;-60
2023/09/04 00:17:15;;;;;;;6.40;5.80;;;13.10;1.00;;;;;;5117383;28;20959;-61
2023/09/04 00:19:43;;;;;;;6.27;5.47;;;13.10;1.00;;;;;;5117409;28;20928;-61
2023/09/04 00:22:12;;;;;;;6.73;6.10;;;13.10;1.00;;;;;;5117427;28;20462;-60
2023/09/04 00:24:39;;;;;;;8.23;7.07;;;13.10;1.00;;;;;;5119701;28;20436;-61
2023/09/04 00:27:07;;;;;;;8.83;6.90;;;13.10;1.00;;;;;;5121133;28;20455;-61
2023/09/04 00:29:34;;;;;;;7.10;6.17;;;13.10;1.00;;;;;;5121349;28;20825;-61
2023/09/04 00:32:02;;;;;;;8.03;6.77;;;13.00;1.00;;;;;;5121263;28;20549;-61
2023/09/04 00:34:29;;;;;;;8.73;6.93;;;13.10;1.00;;;;;;5120804;28;20460;-61
2023/09/04 00:36:58;;;;;;;6.63;6.03;;;13.10;1.00;;;;;;5120841;28;20476;-61
2023/09/04 00:39:25;;;;;;;7.57;5.80;;;13.00;1.00;;;;;;5121017;28;20483;-61
2023/09/04 00:41:52;;;;;;;11.10;6.70;;;13.00;1.00;;;;;;5121215;28;20800;-61
2023/09/04 00:44:20;;;;;;;8.57;6.13;;;13.00;1.00;;;;;;5121153;28;20450;-61
2023/09/04 00:46:47;;;;;;;6.30;5.70;;;13.00;1.00;;;;;;5120684;28;20562;-60
2023/09/04 00:49:15;;;;;;;5.70;5.10;;;13.00;1.00;;;;;;5120927;28;20457;-61
2023/09/04 00:51:42;;;;;;;7.70;5.70;;;12.90;1.00;;;;;;5120968;28;20891;-61
2023/09/04 00:54:14;;;;;;;6.73;5.57;;;12.90;1.00;;;;;;5121039;28;20830;-61
2023/09/04 00:56:42;;;;;;;5.93;5.17;;;12.90;1.00;;;;;;5120725;28;20466;-61
2023/09/04 00:59:09;;;;;;;7.83;5.97;;;12.80;1.00;;;;;;5120627;28;20994;-60
2023/09/04 01:01:36;;;;;;;8.60;5.90;;;12.80;1.00;;;;;;5120703;28;20549;-61
2023/09/04 01:04:04;;;;;;;7.80;6.30;;;12.70;1.00;;;;;;5120979;28;20716;-61
2023/09/04 01:06:32;;;;;;;8.30;6.53;;;12.70;1.00;;;;;;5119862;28;20468;-61
2023/09/04 01:09:00;;;;;;;8.07;6.70;;;12.60;1.00;;;;;;5120679;28;20459;-61
2023/09/04 01:11:34;;;;;;;9.10;6.57;;;12.70;1.00;;;;;;5120108;28;20900;-61
2023/09/04 01:14:07;;;;;;;7.40;6.40;;;12.60;1.00;;;;;;5120511;28;20455;-61
2023/09/04 01:16:35;;;;;;;10.47;6.67;;;12.60;1.00;;;;;;5120071;28;20469;-61
2023/09/04 01:19:03;;;;;;;10.80;6.00;;;12.70;1.00;;;;;;5120046;28;20491;-61
2023/09/04 01:21:36;;;;;;;7.50;5.40;;;12.60;1.00;;;;;;5120277;28;20460;-61
2023/09/04 01:24:04;;;;;;;8.23;5.80;;;12.60;1.00;;;;;;5120313;28;20459;-61
2023/09/04 01:26:37;;;;;;;6.87;6.20;;;12.60;1.00;;;;;;5120133;28;20546;-61
2023/09/04 01:29:11;;;;;;;6.80;6.10;;;12.60;1.00;;;;;;5120308;28;20455;-61
2023/09/04 01:31:45;;;;;;;7.43;5.70;;;12.60;1.00;;;;;;5119615;28;20819;-61
2023/09/04 01:34:17;;;;;;;7.20;6.50;;;12.50;1.00;;;;;;5120381;28;20451;-61
2023/09/04 01:36:47;;;;;;;7.83;6.10;;;12.50;99.90;;;;;;5119447;28;20573;-61
2023/09/04 01:39:14;;;;;;;8.50;6.13;;;12.50;99.90;;;;;;5120326;28;20509;-60
2023/09/04 01:41:42;;;;;;;7.40;6.37;;;12.50;99.90;;;;;;5120025;28;20913;-61
2023/09/04 01:44:09;;;;;;;8.40;6.50;;;12.50;99.90;;;;;;5120286;28;20555;-61
2023/09/04 01:46:36;;;;;;;6.23;5.60;;;12.40;99.90;;;;;;5119298;28;20455;-61
2023/09/04 01:49:04;;;;;;;7.40;6.70;;;12.40;99.90;;;;;;5119581;28;20456;-61
2023/09/04 01:51:31;;;;;;;9.53;6.20;;;12.40;99.90;;;;;;5119682;28;20549;-61
2023/09/04 01:53:59;;;;;;;10.50;5.97;;;12.40;1.00;;;;;;5120129;28;20464;-61
2023/09/04 01:56:27;;;;;;;6.90;5.77;;;12.40;1.00;;;;;;5119240;28;20461;-61
2023/09/04 01:58:54;;;;;;;6.70;6.10;;;12.30;1.00;;;;;;5119407;28;20494;-61
2023/09/04 02:01:21;;;;;;;7.10;6.40;;;12.30;99.90;;;;;;5119386;28;20488;-61
2023/09/04 02:03:54;;;;;;;9.93;6.07;;;12.20;1.00;;;;;;5119435;28;20543;-61
2023/09/04 02:06:22;;;;;;;7.03;6.30;;;12.30;1.00;;;;;;5118392;28;20464;-61
2023/09/04 02:08:49;;;;;;;8.00;7.20;;;12.30;1.00;;;;;;5119066;28;20512;-61
2023/09/04 02:11:18;;;;;;;7.77;6.47;;;12.20;1.00;;;;;;5119524;28;20490;-61
2023/09/04 02:13:46;;;;;;;7.23;6.63;;;12.20;1.00;;;;;;5119137;28;20456;-61
2023/09/04 02:16:13;;;;;;;9.13;6.43;;;12.20;1.00;;;;;;5119674;28;20509;-61
2023/09/04 02:18:40;;;;;;;7.83;7.13;;;12.30;1.00;;;;;;5119351;28;20759;-61
2023/09/04 02:21:08;;;;;;;17.60;7.13;;;12.30;1.00;;;;;;5119262;28;20578;-61
2023/09/04 02:23:38;;;;;;;7.33;6.63;;;12.30;1.00;;;;;;5119281;28;20574;-61
2023/09/04 02:26:05;;;;;;;7.73;6.20;;;12.20;1.00;;;;;;5119227;28;20448;-61
2023/09/04 02:28:34;;;;;;;18.57;7.00;;;12.10;1.00;;;;;;5118939;28;20495;-61
2023/09/04 02:31:07;;;;;;;8.37;6.20;;;12.10;32.40;;;;;;5119096;28;20466;-61
2023/09/04 02:33:34;;;;;;;7.30;6.70;;;12.00;99.90;;;;;;5118512;28;20459;-61
2023/09/04 02:36:02;;;;;;;7.97;7.10;;;12.00;99.90;;;;;;5118685;28;20554;-60
2023/09/04 02:38:29;;;;;;;7.67;6.87;;;12.00;99.90;;;;;;5118757;28;20465;-61
2023/09/04 02:40:57;;;;;;;7.83;7.07;;;11.90;99.90;;;;;;5118699;28;20488;-61
2023/09/04 02:43:24;;;;;;;7.90;7.10;;;11.90;99.90;;;;;;5118638;28;20455;-60
2023/09/04 02:45:53;;;;;;;8.40;7.60;;;11.90;99.90;;;;;;5118598;28;20554;-60
2023/09/04 02:48:20;;;;;;;8.60;6.63;;;11.90;99.90;;;;;;5118706;28;20452;-60
2023/09/04 02:50:47;;;;;;;8.53;6.37;;;11.90;99.90;;;;;;5117851;28;20963;-60
2023/09/04 02:53:14;;;;;;;8.00;6.77;;;11.90;99.50;;;;;;5118535;28;20931;-61
2023/09/04 02:55:47;;;;;;;13.30;7.30;;;11.90;1.00;;;;;;5118626;28;20880;-60
2023/09/04 02:58:14;;;;;;;8.90;7.27;;;11.90;8.40;;;;;;5118918;28;20868;-60
2023/09/04 03:00:43;;;;;;;8.07;7.27;;;11.80;72.00;;;;;;5118451;28;20527;-60
2023/09/04 03:03:12;;;;;;;9.00;6.40;;;11.80;99.90;;;;;;5118180;28;20459;-60
2023/09/04 03:05:39;;;;;;;7.67;6.97;;;11.80;99.90;;;;;;5118519;28;20874;-60
2023/09/04 03:08:07;;;;;;;7.70;6.73;;;11.80;99.90;;;;;;5118513;28;20463;-60
2023/09/04 03:10:34;;;;;;;8.80;7.00;;;11.70;1.00;;;;;;5118477;28;20818;-61
2023/09/04 03:13:01;;;;;;;7.87;7.07;;;11.80;1.00;;;;;;5118160;28;20491;-61
2023/09/04 03:15:29;;;;;;;8.07;7.27;;;11.80;1.00;;;;;;5118036;28;20524;-61
2023/09/04 03:17:56;;;;;;;7.87;6.43;;;11.80;1.00;;;;;;5118192;28;20459;-60
2023/09/04 03:20:25;;;;;;;10.23;7.23;;;11.80;99.90;;;;;;5117827;28;20509;-60
2023/09/04 03:22:53;;;;;;;7.90;6.97;;;11.80;99.90;;;;;;5118223;28;20743;-60
2023/09/04 03:25:20;;;;;;;8.30;7.40;;;11.80;99.90;;;;;;5118217;28;20455;-60
2023/09/04 03:27:47;;;;;;;7.03;6.33;;;11.70;81.60;;;;;;5118398;28;20558;-60
2023/09/04 03:30:14;;;;;;;7.17;6.47;;;11.70;16.00;;;;;;5118382;28;20474;-60
2023/09/04 03:32:42;;;;;;;7.87;6.90;;;11.80;1.00;;;;;;5117842;28;20478;-60
2023/09/04 03:35:09;;;;;;;8.20;7.10;;;11.70;99.90;;;;;;5117946;28;20554;-61
2023/09/04 03:37:38;;;;;;;7.83;7.03;;;11.70;99.90;;;;;;5117741;28;20485;-61
2023/09/04 03:40:21;;;;;;;8.87;6.67;;;11.60;99.90;;;;;;5117905;28;20487;-60
2023/09/04 03:42:48;;;;;;;7.73;7.03;;;11.60;99.90;;;;;;5114371;28;20828;-60
2023/09/04 03:45:15;;;;;;;7.70;6.90;;;11.60;1.00;;;;;;5117726;28;20455;-61
2023/09/04 03:47:44;;;;;;;7.40;6.70;;;11.60;1.00;;;;;;5117742;28;20451;-60
2023/09/04 03:50:12;;;;;;;7.87;7.07;;;11.60;1.00;;;;;;5117680;28;20542;-60
2023/09/04 03:52:42;;;;;;;7.83;7.03;;;11.60;96.30;;;;;;5117903;28;20455;-60
2023/09/04 03:55:10;;;;;;;9.47;6.83;;;11.60;79.00;;;;;;5117930;28;20902;-60
2023/09/04 03:57:39;;;;;;;9.47;7.83;;;11.60;68.90;;;;;;5117682;28;20541;-60
2023/09/04 04:00:14;;;;;;;9.23;6.97;;;11.60;90.20;;;;;;5121533;28;20453;-60
2023/09/04 04:02:41;;;;;;;8.30;6.73;;;11.60;85.80;;;;;;5121827;28;20494;-60
2023/09/04 04:05:10;;;;;;;8.00;6.77;;;11.60;1.00;;;;;;5121507;28;20461;-60
2023/09/04 04:07:37;;;;;;;10.27;6.90;;;11.60;1.00;;;;;;5121881;28;20798;-60
2023/09/04 04:10:07;;;;;;;9.50;7.20;;;11.50;99.90;;;;;;5110856;28;20799;-60
2023/09/04 04:12:34;;;;;;;8.33;6.90;;;11.50;99.90;;;;;;5100841;28;20471;-60
2023/09/04 04:15:05;;;;;;;7.87;7.17;;;11.40;30.00;;;;;;5101025;28;20502;-61
2023/09/04 04:17:32;;;;;;;8.00;7.30;;;11.40;74.10;;;;;;5101135;28;20467;-60
2023/09/04 04:20:00;;;;;;;11.77;7.70;;;11.40;93.80;;;;;;5101207;28;20748;-60
2023/09/04 04:22:27;;;;;;;8.83;7.93;;;11.40;99.90;;;;;;5100935;28;20970;-60
2023/09/04 04:24:54;;;;;;;12.00;9.77;;;11.40;99.90;;;;;;5100836;28;20452;-60
2023/09/04 04:27:23;;;;;;;9.73;7.80;;;11.40;99.90;;;;;;5100991;28;20995;-60
2023/09/04 04:29:52;;;;;;;9.57;8.53;;;11.40;1.00;;;;;;5101056;28;20747;-61
2023/09/04 04:32:19;;;;;;;12.83;11.73;;;11.40;1.00;;;;;;5100819;28;20908;-61
2023/09/04 04:34:46;;;;;;;10.87;9.77;;;11.40;1.00;;;;;;5100401;28;20496;-61
2023/09/04 04:37:14;;;;;;;11.60;10.23;;;11.40;1.00;;;;;;5087043;28;20484;-61
2023/09/04 04:39:41;;;;;;;10.27;9.27;;;11.40;1.00;;;;;;5080297;28;20457;-60
2023/09/04 04:42:08;;;;;;;12.63;8.60;;;11.40;1.00;;;;;;5078891;28;20500;-61
2023/09/04 04:44:37;;;;;;;11.13;8.80;;;11.40;99.90;;;;;;5078252;28;20463;-61
2023/09/04 04:47:04;;;;;;;11.23;9.67;;;11.40;99.90;;;;;;5078372;28;20464;-60
2023/09/04 04:49:31;;;;;;;10.37;8.80;;;11.40;99.90;;;;;;5078636;28;20467;-60
2023/09/04 04:51:59;;;;;;;10.47;8.23;;;11.40;99.90;;;;;;5078690;28;20547;-60
2023/09/04 04:54:27;;;;;;;10.93;8.13;;;11.40;99.90;;;;;;5078354;28;20467;-60
2023/09/04 04:56:54;;;;;;;9.50;8.50;;;11.40;99.90;;;;;;5079543;28;20487;-60
2023/09/04 04:59:21;;;;;;;11.70;7.50;;;11.30;99.90;;;;;;5080020;28;20492;-60
2023/09/04 05:01:50;;;;;;;10.60;8.53;;;11.40;1.00;;;;;;5080312;28;20489;-61
2023/09/04 05:04:17;;;;;;;10.43;8.90;;;11.40;1.00;;;;;;5080053;28;20526;-61
2023/09/04 05:06:46;;;;;;;9.93;8.93;;;11.30;1.00;;;;;;5078959;28;20556;-62
2023/09/04 05:09:13;;;;;;;10.67;9.00;;;11.30;40.20;;;;;;5079613;28;20462;-61
2023/09/04 05:11:40;;;;;;;11.60;8.93;;;11.40;99.90;;;;;;5079522;28;20500;-61
2023/09/04 05:14:07;;;;;;;9.43;8.40;;;11.40;99.90;;;;;;5080163;28;20453;-61
2023/09/04 05:16:35;;;;;;;9.60;8.10;;;11.50;99.90;;;;;;5079719;28;20808;-61
2023/09/04 05:19:03;;;;;;;8.40;7.10;;;11.60;85.00;;;;;;5079980;28;20470;-61
2023/09/04 05:21:31;;;;;;;10.87;6.73;;;11.60;1.00;;;;;;5079686;28;20489;-61
2023/09/04 05:23:58;;;;;;;6.50;5.90;;;11.50;99.90;;;;;;5079765;28;20810;-61
2023/09/04 05:26:25;;;;;;;7.70;6.80;;;11.50;99.90;;;;;;5079117;28;20548;-61
2023/09/04 05:28:53;;;;;;;11.90;7.50;;;11.60;99.90;;;;;;5079392;28;20461;-61
2023/09/04 05:31:20;;;;;;;8.10;7.17;;;11.60;99.90;;;;;;5079454;28;20504;-61
2023/09/04 05:33:47;;;;;;;8.27;7.30;;;11.70;99.90;;;;;;5080017;28;20650;-61
2023/09/04 05:36:16;;;;;;;7.50;6.80;;;11.80;99.90;;;;;;5079325;28;20513;-61
2023/09/04 05:38:43;;;;;;;8.00;6.90;;;11.90;99.90;;;;;;5077924;28;20448;-62
2023/09/04 05:41:10;;;;;;;7.90;6.93;;;11.90;99.90;;;;;;5078769;28;20492;-61
2023/09/04 05:43:38;;;;;;;9.07;7.47;;;12.00;99.90;;;;;;5079644;28;20483;-61
2023/09/04 05:46:05;;;;;;;7.30;6.60;;;12.00;99.90;;;;;;5079272;28;20544;-60
2023/09/04 05:48:34;;;;;;;9.77;6.77;;;12.10;99.90;;;;;;5079060;28;20556;-61
2023/09/04 05:51:02;;;;;;;9.20;6.53;;;12.20;99.90;;;;;;5078194;28;20898;-61
2023/09/04 05:53:31;;;;;;;8.67;7.13;;;12.30;1.00;;;;;;5079014;28;20467;-61
2023/09/04 05:56:06;;;;;;;9.50;7.00;;;12.30;1.00;;;;;;5079262;28;20560;-61
2023/09/04 05:58:34;;;;;;;8.27;7.47;;;12.40;1.00;;;;;;5079091;28;20565;-61
2023/09/04 06:01:01;;;;;;;7.27;6.53;;;12.40;1.00;;;;;;5078863;28;20832;-60
2023/09/04 06:03:29;;;;;;;9.77;8.20;;;12.60;94.20;;;;;;5078885;28;20763;-61
2023/09/04 06:05:56;;;;;;;9.40;8.40;;;12.70;99.90;;;;;;5078810;28;20551;-61
2023/09/04 06:08:24;;;;;;;12.37;9.63;;;12.90;99.90;;;;;;5078322;28;20554;-61
2023/09/04 06:10:52;;;;;;;12.03;10.20;;;13.00;99.90;;;;;;5078633;28;20754;-60
2023/09/04 06:13:20;;;;;;;11.07;9.10;;;13.20;99.90;;;;;;5078743;28;20511;-61
2023/09/04 06:15:50;;;;;;;9.90;8.90;;;13.30;99.90;;;;;;5078820;28;20485;-61
2023/09/04 06:18:19;;;;;;;13.47;10.10;;;13.50;99.90;;;;;;5078748;28;20488;-61
2023/09/04 06:20:46;;;;;;;11.67;9.10;;;13.60;99.90;;;;;;5077529;28;20518;-62
2023/09/04 06:23:14;;;;;;;10.23;9.23;;;13.80;99.90;;;;;;5078449;28;20544;-62
2023/09/04 06:25:43;;;;;;;9.83;8.83;;;13.90;99.90;;;;;;5078494;28;20539;-62
2023/09/04 06:28:13;;;;;;;12.70;9.40;;;14.00;1.00;;;;;;5078539;28;20457;-62
2023/09/04 06:30:40;;;;;;;11.23;10.07;;;14.20;1.00;;;;;;5078352;28;20499;-63
2023/09/04 06:33:08;;;;;;;11.00;9.03;;;14.40;1.00;;;;;;5078182;28;20461;-63
2023/09/04 06:35:35;;;;;;;11.63;9.13;;;14.50;99.90;;;;;;5078104;28;20457;-63
2023/09/04 06:38:03;;;;;;;16.50;9.40;;;14.70;99.90;;;;;;5098272;28;20492;-63
2023/09/04 06:40:31;;;;;;;10.83;9.73;;;14.80;1.00;;;;;;5098082;28;20560;-62
2023/09/04 06:42:58;;;;;;;15.60;10.57;;;15.00;1.00;;;;;;5097980;28;20457;-61
2023/09/04 06:45:27;;;;;;;10.90;9.50;;;15.20;1.00;;;;;;5098585;28;20877;-61
2023/09/04 06:47:54;;;;;;;9.70;8.70;;;15.40;1.00;;;;;;5098663;28;20492;-62
2023/09/04 06:50:21;;;;;;;11.20;9.07;;;15.50;99.90;;;;;;5098045;28;20506;-62
2023/09/04 06:52:49;;;;;;;10.30;9.00;;;15.60;99.90;;;;;;5097891;28;20459;-62
2023/09/04 06:55:16;;;;;;;10.47;8.57;;;15.80;99.90;;;;;;5109433;28;20491;-62
2023/09/04 06:57:43;;;;;;;9.90;8.90;;;15.80;99.90;;;;;;5117642;28;20822;-62
2023/09/04 07:00:11;;;;;;;11.50;9.07;;;16.00;99.90;;;;;;5118191;28;20462;-62
2023/09/04 07:02:41;;;;;;;17.27;9.50;;;16.10;99.90;;;;;;5117639;28;20491;-62
2023/09/04 07:05:09;;;;;;;11.77;9.13;;;16.30;99.90;;;;;;5116730;28;20459;-63
2023/09/04 07:07:37;;;;;;;9.20;7.87;;;16.50;99.90;;;;;;5117637;28;20814;-62
2023/09/04 07:10:06;;;;;;;8.60;7.80;;;16.50;69.30;;;;;;5117686;28;20459;-62
2023/09/04 07:12:37;;;;;;;13.90;7.10;;;16.90;99.90;;;;;;5116457;28;20469;-62
2023/09/04 07:15:05;;;;;;;7.67;6.23;;;17.30;99.90;;;;;;5117222;28;20459;-62
2023/09/04 07:17:32;;;;;;;9.63;6.37;;;17.40;7.40;;;;;;5117518;28;20528;-62
2023/09/04 07:20:01;;;;;;;7.00;6.20;;;17.70;1.00;;;;;;5117415;28;20516;-62
2023/09/04 07:22:28;;;;;;;6.10;5.50;;;17.80;99.90;;;;;;5116002;28;20798;-62
2023/09/04 07:24:56;;;;;;;7.63;5.30;;;18.00;1.00;;;;;;5116095;28;20473;-62
2023/09/04 07:27:24;;;;;;;5.60;4.67;;;18.40;1.00;;;;;;5115868;28;20498;-63
2023/09/04 07:29:52;;;;;;;9.20;6.07;;;18.80;1.00;;;;;;5116660;28;20459;-62
2023/09/04 07:32:19;;;;;;;5.77;4.87;;;18.90;99.90;;;;;;5110187;28;20567;-62
2023/09/04 07:34:47;;;;;;;5.53;4.40;;;19.20;99.90;;;;;;5096905;28;20877;-62
2023/09/04 07:37:15;;;;;;;4.60;4.20;;;19.60;99.90;;;;;;5101567;28;20567;-62
2023/09/04 07:39:43;;;;;;;6.57;4.37;;;19.90;99.90;;;;;;5096285;28;20932;-62
2023/09/04 07:42:12;;;;;;;4.33;3.80;;;20.40;99.90;;;;;;5095244;28;20484;-62
2023/09/04 07:44:39;;;;;;;5.43;4.30;;;20.60;99.90;;;;;;5096774;28;20462;-62
2023/09/04 07:47:06;;;;;;;6.23;4.20;;;20.90;1.00;;;;;;5096500;28;20467;-62
2023/09/04 07:49:34;;;;;;;8.30;3.77;;;21.00;1.00;;;;;;5096384;28;20493;-62
2023/09/04 07:52:01;;;;;;;5.57;4.67;;;21.20;99.90;;;;;;5096770;28;20453;-62
2023/09/04 07:54:30;;;;;;;5.83;3.50;;;21.30;99.90;;;;;;5095208;28;20543;-62
2023/09/04 07:56:59;;;;;;;4.63;4.20;;;21.40;99.90;;;;;;5095602;28;20464;-62
2023/09/04 07:59:26;;;;;;;4.77;3.83;;;21.50;99.90;;;;;;5095731;28;20461;-62
2023/09/04 08:01:54;;;;;;;4.50;3.60;;;21.70;99.90;;;;;;5095606;28;20571;-62
2023/09/04 08:04:21;;;;;;;4.70;3.67;;;21.90;10.70;;;;;;5095258;28;20563;-63
2023/09/04 08:06:48;;;;;;;4.90;3.43;;;22.20;1.00;;;;;;5093865;28;20899;-63
2023/09/04 08:09:16;;;;;;;4.73;3.73;;;22.40;1.00;;;;;;5089612;28;20923;-63
2023/09/04 08:11:45;;;;;;;4.40;3.10;;;22.60;99.90;;;;;;5094924;28;20465;-63
2023/09/04 08:14:13;;;;;;;3.77;3.40;;;22.80;99.90;;;;;;5076961;28;20496;-63
2023/09/04 08:16:40;;;;;;;3.70;3.40;;;23.00;99.90;;;;;;5076915;28;20560;-63
2023/09/04 08:19:08;;;;;;;3.60;3.17;;;23.30;99.90;;;;;;5076854;28;20461;-63
2023/09/04 08:21:35;;;;;;;2.57;2.37;;;23.40;99.90;;;;;;5076700;28;20555;-63
2023/09/04 08:24:02;;;;;;;3.23;2.50;;;23.40;1.00;;;;;;5076824;28;20461;-64
2023/09/04 08:26:30;;;;;;;3.30;3.00;;;23.70;22.90;;;;;;5076624;28;20432;-64
2023/09/04 08:28:59;;;;;;;3.93;2.83;;;23.80;1.00;;;;;;5076441;28;20556;-63
2023/09/04 08:31:26;;;;;;;3.20;2.90;;;23.90;1.00;;;;;;5076939;28;20855;-63
2023/09/04 08:33:53;;;;;;;4.20;3.27;;;24.20;1.00;;;;;;5076703;28;20457;-63
2023/09/04 08:36:21;;;;;;;3.17;2.17;;;24.30;1.00;;;;;;5082046;28;20810;-63
2023/09/04 08:38:48;;;;;;;3.20;2.40;;;24.60;1.00;;;;;;5096768;28;20821;-63
2023/09/04 08:41:18;;;;;;;3.10;2.80;;;24.70;99.90;;;;;;5097030;28;20456;-63
2023/09/04 08:43:48;;;;;;;4.10;2.90;;;24.90;99.90;;;;;;5096687;28;20593;-64
2023/09/04 08:46:19;;;;;;;2.90;2.70;;;25.00;99.90;;;;;;5100708;28;20546;-64
2023/09/04 08:48:49;;;;;;;3.63;3.10;;;25.00;99.90;;;;;;5100292;28;20462;-63
2023/09/04 08:51:16;;;;;;;3.50;3.20;;;25.10;99.90;;;;;;5100883;28;20538;-62
2023/09/04 08:53:44;;;;;;;3.20;2.90;;;25.20;99.90;;;;;;5119184;27;20483;-63
2023/09/04 08:56:12;;;;;;;3.50;3.20;;;25.50;99.90;;;;;;5125456;27;20456;-63
2023/09/04 08:58:40;;;;;;;3.60;2.93;;;25.30;99.90;;;;;;5120626;28;20459;-63
2023/09/04 09:01:07;;;;;;;2.90;2.60;;;25.30;99.90;;;;;;5120710;28;20519;-63
2023/09/04 09:03:37;;;;;;;3.33;3.03;;;25.30;99.90;;;;;;5120915;28;20795;-63
2023/09/04 09:06:05;;;;;;;3.93;3.53;;;25.60;99.90;;;;;;5120556;28;20459;-63
2023/09/04 09:08:34;;;;;;;3.10;2.60;;;25.80;99.90;;;;;;5120611;28;20467;-63
2023/09/04 09:11:03;;;;;;;4.07;3.17;;;26.00;99.90;;;;;;5120551;28;20474;-63
2023/09/04 09:13:30;;;;;;;3.43;3.13;;;26.00;99.90;;;;;;5120403;28;20455;-63
2023/09/04 09:15:58;;;;;;;3.50;3.20;;;26.30;99.90;;;;;;5120519;28;20451;-62
2023/09/04 09:18:37;;;;;;;4.27;3.77;;;26.50;99.90;;;;;;5118749;28;20570;-62
2023/09/04 09:21:23;;;;;;;3.23;2.93;;;26.60;99.90;;;;;;5119915;28;20470;-62
2023/09/04 09:24:11;;;;;;;3.80;3.47;;;26.70;99.90;;;;;;5120433;28;20456;-63
2023/09/04 09:26:40;;;;;;;3.13;2.83;;;26.80;99.90;;;;;;5120173;28;20490;-63
2023/09/04 09:29:10;;;;;;;3.80;3.40;;;26.90;99.90;;;;;;5120199;28;20733;-60
2023/09/04 09:31:39;;;;;;;3.57;3.27;;;27.00;99.90;;;;;;5120196;28;20504;-60
2023/09/04 09:34:07;;;;;;;5.23;3.53;;;27.20;99.90;;;;;;5120120;28;20466;-60
2023/09/04 09:36:35;;;;;;;4.00;3.60;;;27.40;99.90;;;;;;5119424;28;20481;-60
2023/09/04 09:39:04;;;;;;;3.93;3.13;;;27.70;99.90;;;;;;5120142;28;20530;-60
2023/09/04 09:41:32;;;;;;;4.07;3.07;;;27.90;99.90;;;;;;5119428;28;20508;-60
2023/09/04 09:44:01;;;;;;;3.33;3.03;;;28.00;99.90;;;;;;5120226;28;20896;-60
2023/09/04 09:46:30;;;;;;;3.07;2.87;;;28.10;99.90;;;;;;5119839;28;20881;-61
2023/09/04 09:48:57;;;;;;;3.53;3.23;;;28.30;99.90;;;;;;5119676;28;20822;-61
2023/09/04 09:51:27;;;;;;;3.80;3.27;;;28.30;99.90;;;;;;5119059;28;20456;-60
2023/09/04 09:53:56;;;;;;;3.20;2.90;;;28.20;99.90;;;;;;5119725;28;20455;-60
2023/09/04 09:56:25;;;;;;;3.97;3.67;;;28.40;99.90;;;;;;5119355;28;20463;-61
2023/09/04 09:58:52;;;;;;;3.53;3.23;;;28.40;1.00;;;;;;5119971;28;20455;-60
2023/09/04 10:01:20;;;;;;;3.07;2.87;;;28.30;99.90;;;;;;5119427;28;20462;-60
2023/09/04 10:03:47;;;;;;;4.33;3.53;;;28.50;99.90;;;;;;5118985;28;20587;-60
2023/09/04 10:06:27;;;;;;;3.80;3.50;;;28.60;99.90;;;;;;5119841;28;20555;-60
2023/09/04 10:08:54;;;;;;;3.57;3.27;;;28.60;99.90;;;;;;5118874;28;20459;-60
2023/09/04 10:11:23;;;;;;;3.20;2.73;;;28.80;99.90;;;;;;5121888;27;20548;-59
2023/09/04 10:13:56;;;;;;;3.00;2.80;;;28.90;99.90;;;;;;5135864;27;20447;-60
2023/09/04 10:16:32;;;;;;;3.20;2.67;;;29.00;99.90;;;;;;5138011;27;20461;-59
2023/09/04 10:19:03;;;;;;;3.30;3.03;;;29.10;99.90;;;;;;5138502;27;20454;-60
2023/09/04 10:21:35;;;;;;;3.43;3.17;;;28.90;99.90;;;;;;5138569;27;20454;-59
2023/09/04 10:24:03;;;;;;;3.70;3.00;;;29.10;99.90;;;;;;5120072;27;20495;-60
2023/09/04 10:26:39;;;;;;;3.80;3.40;;;28.90;99.90;;;;;;5117491;28;20649;-60
2023/09/04 10:29:11;;;;;;;5.60;3.20;;;29.00;99.90;;;;;;5117106;28;20484;-58
2023/09/04 10:31:39;;;;;;;3.60;3.10;;;29.20;99.90;;;;;;5117175;28;20835;-60
2023/09/04 10:34:08;;;;;;;3.73;2.97;;;29.40;99.90;;;;;;5117403;28;20479;-60
2023/09/04 10:36:39;;;;;;;4.03;3.63;;;29.40;99.90;;;;;;5125503;27;20485;-60
2023/09/04 10:39:08;;;;;;;3.47;3.17;;;29.70;99.90;;;;;;5137975;27;20450;-60
2023/09/04 10:41:36;;;;;;;3.53;3.23;;;29.80;99.90;;;;;;5137775;27;20930;-59
2023/09/04 10:44:03;;;;;;;4.20;3.57;;;29.80;1.00;;;;;;5137633;27;20498;-61
2023/09/04 10:46:31;;;;;;;3.40;3.10;;;30.00;99.90;;;;;;5138085;27;20891;-61
2023/09/04 10:48:58;;;;;;;4.70;3.33;;;30.00;99.90;;;;;;5139214;27;20554;-60
2023/09/04 10:51:31;;;;;;;3.30;2.67;;;30.10;99.90;;;;;;5139169;27;20480;-60
2023/09/04 10:54:02;;;;;;;4.20;3.73;;;30.10;99.90;;;;;;5129447;27;20835;-60
2023/09/04 10:56:29;;;;;;;3.77;3.47;;;30.30;1.00;;;;;;5097156;28;20476;-60
2023/09/04 10:59:01;;;;;;;3.20;2.90;;;30.10;99.90;;;;;;5096946;28;20543;-60
2023/09/04 11:01:36;;;;;;;3.83;3.53;;;30.20;99.90;;;;;;5098087;28;20900;-60
2023/09/04 11:04:05;;;;;;;3.20;3.00;;;30.40;99.90;;;;;;5098030;28;20581;-60
2023/09/04 11:06:39;;;;;;;3.33;3.03;;;30.30;99.90;;;;;;5096737;28;20542;-60
2023/09/04 11:09:12;;;;;;;3.40;3.10;;;30.20;99.90;;;;;;5097380;28;20550;-59
2023/09/04 11:11:40;;;;;;;3.83;3.50;;;30.50;3.10;;;;;;5097676;28;20451;-60
2023/09/04 11:14:09;;;;;;;3.67;3.33;;;30.40;1.00;;;;;;5098115;28;20458;-60
2023/09/04 11:16:44;;;;;;;3.50;3.20;;;30.50;8.30;;;;;;5097406;28;20562;-59
2023/09/04 11:19:16;;;;;;;4.00;3.53;;;30.60;99.90;;;;;;5096453;28;20464;-59
2023/09/04 11:21:46;;;;;;;3.80;3.50;;;30.50;71.90;;;;;;5095974;28;20919;-60
2023/09/04 11:24:18;;;;;;;3.23;3.03;;;30.50;43.90;;;;;;5104622;28;20489;-60
2023/09/04 11:26:45;;;;;;;4.23;3.60;;;30.50;94.20;;;;;;5116275;28;20774;-60
2023/09/04 11:29:12;;;;;;;4.03;3.70;;;30.50;99.90;;;;;;5116403;28;20930;-59
2023/09/04 11:31:40;;;;;;;5.00;3.67;;;30.50;99.90;;;;;;5116255;28;20486;-61
2023/09/04 11:34:08;;;;;;;3.73;3.43;;;30.70;99.90;;;;;;5116033;28;20831;-60
2023/09/04 11:36:38;;;;;;;3.53;3.20;;;31.20;99.90;;;;;;5117912;28;20482;-61
2023/09/04 11:39:08;;;;;;;3.83;3.53;;;31.30;99.90;;;;;;5118050;28;20568;-60
2023/09/04 11:41:37;;;;;;;3.37;3.07;;;31.10;99.90;;;;;;5117763;28;20461;-61
2023/09/04 11:44:05;;;;;;;3.53;3.23;;;31.10;99.90;;;;;;5117906;28;20915;-60
2023/09/04 11:46:33;;;;;;;4.23;3.87;;;31.10;1.00;;;;;;5117533;28;20729;-60
2023/09/04 11:49:02;;;;;;;3.67;3.30;;;31.00;1.00;;;;;;5117385;28;20512;-60
2023/09/04 11:51:30;;;;;;;6.20;3.40;;;31.20;99.90;;;;;;5116746;28;20553;-60
2023/09/04 11:53:58;;;;;;;3.43;3.17;;;31.30;1.00;;;;;;5117677;28;20450;-60
2023/09/04 11:56:25;;;;;;;3.63;3.33;;;31.40;99.90;;;;;;5117396;28;20503;-60
2023/09/04 11:58:54;;;;;;;3.60;3.30;;;31.20;99.90;;;;;;5117451;28;20939;-60
2023/09/04 12:01:21;;;;;;;3.87;3.17;;;31.10;1.00;;;;;;5112538;28;20508;-60
2023/09/04 12:03:50;;;;;;;3.10;2.90;;;31.30;1.00;;;;;;5097291;28;20637;-60
2023/09/04 12:06:17;;;;;;;3.97;3.67;;;31.40;99.90;;;;;;5097540;28;20456;-60
2023/09/04 12:08:45;;;;;;;4.60;2.97;;;31.70;1.00;;;;;;5096832;28;20459;-60
2023/09/04 12:11:14;;;;;;;4.07;3.77;;;31.90;1.00;;;;;;5096587;28;20459;-59
2023/09/04 12:13:41;;;;;;;3.00;2.80;;;32.10;99.90;;;;;;5097293;28;20456;-60
2023/09/04 12:16:11;;;;;;;3.20;3.00;;;32.10;99.90;;;;;;5097439;28;20493;-59
2023/09/04 12:18:38;;;;;;;4.10;3.33;;;32.10;1.00;;;;;;5096925;28;20840;-60
2023/09/04 12:21:10;;;;;;;3.37;3.07;;;32.00;99.90;;;;;;5100245;28;20459;-59
2023/09/04 12:23:40;;;;;;;2.90;2.70;;;31.90;99.90;;;;;;5098875;28;20484;-60
2023/09/04 12:26:09;;;;;;;3.47;3.17;;;31.80;99.90;;;;;;5099656;28;20474;-59
2023/09/04 12:28:38;;;;;;;3.30;3.10;;;31.70;99.90;;;;;;5099604;28;20487;-60
2023/09/04 12:31:08;;;;;;;3.50;2.97;;;31.80;1.00;;;;;;5099800;28;20462;-60
2023/09/04 12:33:39;;;;;;;3.10;2.90;;;31.90;1.00;;;;;;5100470;28;20542;-60
2023/09/04 12:36:09;;;;;;;3.60;2.60;;;31.90;99.90;;;;;;5100669;28;20483;-59
2023/09/04 12:38:37;;;;;;;3.10;2.90;;;31.70;99.90;;;;;;5097111;28;20554;-58
2023/09/04 12:41:05;;;;;;;3.20;3.00;;;31.70;99.90;;;;;;5098394;28;20463;-59
2023/09/04 12:43:32;;;;;;;3.30;2.57;;;31.80;1.00;;;;;;5098632;28;20531;-59
2023/09/04 12:46:01;;;;;;;3.53;3.23;;;31.80;1.00;;;;;;5098305;28;20698;-59
2023/09/04 12:48:30;;;;;;;3.33;3.03;;;31.80;1.00;;;;;;5097309;28;20459;-60
2023/09/04 12:50:57;;;;;;;2.90;2.60;;;31.80;99.90;;;;;;5097752;28;20467;-59
2023/09/04 12:53:24;;;;;;;3.20;2.97;;;31.70;99.90;;;;;;5097390;28;20549;-60